Time;durP1;ratioP1;P1;durP2;ratioP2;P2;SDS_P1;SDS_P2;PMS_P1;PMS_P2;Temp;Humidity;BMP_temperature;BMP_pressure;BME280_temperature;BME280_humidity;BME280_pressure;Samples;Min_cycle;Max_cycle;Signal;HPM_P1;HPM_P2
2022/09/30 00:00:20;;;;;;;3.15;2.13;;;;;;;16.31;61.83;93534.75;5065554;28;20085;-77
2022/09/30 00:02:46;;;;;;;4.85;1.77;;;;;;;16.22;61.90;93530.72;5051219;28;20467;-77
2022/09/30 00:05:12;;;;;;;3.50;2.45;;;;;;;16.37;62.04;93561.31;5049091;28;20526;-77
2022/09/30 00:07:37;;;;;;;3.00;1.88;;;;;;;16.19;62.13;93544.81;5050467;28;20077;-76
2022/09/30 00:10:03;;;;;;;2.58;1.80;;;;;;;16.16;62.06;93538.28;5050136;28;20024;-77
2022/09/30 00:12:28;;;;;;;2.58;1.95;;;;;;;16.33;62.04;93559.31;5051316;28;20039;-76
2022/09/30 00:14:54;;;;;;;3.17;2.50;;;;;;;16.12;62.40;93526.72;5047964;28;20046;-77
2022/09/30 00:17:19;;;;;;;3.00;2.15;;;;;;;16.19;62.57;93548.28;5057394;28;20131;-77
2022/09/30 00:19:45;;;;;;;6.03;2.17;;;;;;;16.25;62.77;93544.19;5050900;28;20025;-76
2022/09/30 00:22:11;;;;;;;4.03;2.20;;;;;;;16.36;62.94;93573.16;5052515;28;20056;-77
2022/09/30 00:24:37;;;;;;;3.70;2.25;;;;;;;16.35;62.75;93579.66;5050932;28;20016;-76
2022/09/30 00:27:02;;;;;;;2.08;1.88;;;;;;;15.98;62.72;93525.66;5048959;28;20483;-77
2022/09/30 00:29:27;;;;;;;4.40;2.25;;;;;;;16.31;62.57;93577.69;5051492;28;20032;-76
2022/09/30 00:31:53;;;;;;;3.55;2.00;;;;;;;16.23;62.68;93575.97;5049342;28;20497;-76
2022/09/30 00:34:19;;;;;;;3.00;2.38;;;;;;;16.30;62.86;93573.47;5050416;28;20040;-76
2022/09/30 00:36:47;;;;;;;7.30;2.30;;;;;;;16.35;62.57;93571.63;5048906;28;20048;-77
2022/09/30 00:39:17;;;;;;;4.32;1.98;;;;;;;16.12;62.57;93528.59;5051014;28;20471;-77
2022/09/30 00:41:45;;;;;;;5.68;2.13;;;;;;;16.30;62.65;93554.69;5045698;28;20029;-77
2022/09/30 00:44:42;;;;;;;2.90;2.05;;;;;;;16.40;62.55;93558.69;5050655;28;20036;-76
2022/09/30 00:47:33;;;;;;;2.70;2.00;;;;;;;16.37;62.35;93553.25;5049539;28;20026;-77
2022/09/30 00:50:14;;;;;;;3.00;1.88;;;;;;;16.32;62.52;93557.00;5035639;28;20977;-76
2022/09/30 00:52:41;;;;;;;4.70;2.40;;;;;;;16.32;62.39;93551.66;5055050;28;20020;-77
2022/09/30 00:55:12;;;;;;;5.80;2.05;;;;;;;16.31;62.29;93553.56;5049657;28;20052;-76
2022/09/30 00:57:38;;;;;;;3.80;1.50;;;;;;;16.27;61.78;93544.63;5046584;28;20170;-77
2022/09/30 01:00:04;;;;;;;6.25;2.60;;;;;;;16.16;61.34;93530.22;5049376;28;20029;-77
2022/09/30 01:02:30;;;;;;;3.10;1.58;;;;;;;16.16;61.17;93537.50;5047007;28;20024;-77
2022/09/30 01:04:56;;;;;;;2.28;1.85;;;;;;;16.27;61.00;93566.09;5050064;28;20082;-77
2022/09/30 01:07:23;;;;;;;4.18;1.73;;;;;;;16.24;61.06;93566.78;5047032;28;20021;-77
2022/09/30 01:09:50;;;;;;;5.35;2.03;;;;;;;16.20;61.21;93544.47;5048615;28;20033;-77
2022/09/30 01:12:19;;;;;;;2.95;1.90;;;;;;;16.12;61.30;93537.44;5048815;28;20054;-77
2022/09/30 01:14:46;;;;;;;2.80;1.77;;;;;;;16.18;61.28;93549.41;5055933;28;20771;-76
2022/09/30 01:17:35;;;;;;;2.90;2.28;;;;;;;16.27;61.18;93555.38;5045192;28;20041;-76
2022/09/30 01:20:27;;;;;;;2.65;2.28;;;;;;;16.26;61.43;93561.84;5049335;28;20043;-77
2022/09/30 01:22:55;;;;;;;4.30;2.33;;;;;;;16.18;61.47;93562.06;5050827;28;20041;-76
2022/09/30 01:25:49;;;;;;;4.38;2.33;;;;;;;16.12;61.62;93566.94;5047349;28;20534;-76
2022/09/30 01:28:30;;;;;;;7.15;2.88;;;;;;;16.12;61.67;93566.94;5049111;28;20024;-77
2022/09/30 01:31:13;;;;;;;3.15;2.55;;;;;;;16.13;61.65;93565.81;5048877;28;20024;-78
2022/09/30 01:33:45;;;;;;;3.10;1.92;;;;;;;16.13;61.11;93570.41;5049804;28;20033;-78
2022/09/30 01:36:10;;;;;;;2.72;2.22;;;;;;;16.14;60.81;93575.41;5051685;28;20589;-76
2022/09/30 01:38:58;;;;;;;6.05;2.88;;;;;;;15.91;60.92;93537.00;5049683;28;20102;-76
2022/09/30 01:41:30;;;;;;;5.38;3.28;;;;;;;16.05;61.33;93564.09;5051022;28;20123;-77
2022/09/30 01:43:58;;;;;;;3.42;2.50;;;;;;;16.00;61.61;93566.28;5048646;28;20025;-77
2022/09/30 01:46:36;;;;;;;8.20;3.28;;;;;;;15.94;61.80;93563.09;5049744;28;20035;-77
2022/09/30 01:49:17;;;;;;;4.28;3.00;;;;;;;16.04;61.40;93565.22;5050661;28;20422;-78
2022/09/30 01:51:54;;;;;;;3.97;3.03;;;;;;;15.98;61.31;93558.63;5049697;28;20024;-76
2022/09/30 01:54:30;;;;;;;3.60;2.60;;;;;;;16.01;61.15;93568.63;5050615;28;20112;-77
2022/09/30 01:57:09;;;;;;;7.13;2.97;;;;;;;15.89;60.90;93549.97;5048607;28;20025;-76
2022/09/30 01:59:43;;;;;;;4.70;2.58;;;;;;;16.00;60.94;93561.72;5050862;28;20075;-77
2022/09/30 02:02:18;;;;;;;6.00;2.85;;;;;;;15.96;61.06;93565.44;5050471;28;20066;-77
2022/09/30 02:05:04;;;;;;;4.30;2.60;;;;;;;15.83;61.34;93546.03;5047893;28;20449;-77
2022/09/30 02:07:34;;;;;;;3.13;2.83;;;;;;;15.90;61.01;93567.63;5051585;28;20028;-77
2022/09/30 02:10:11;;;;;;;4.50;3.38;;;;;;;15.80;60.83;93565.50;5051675;28;20098;-77
2022/09/30 02:12:45;;;;;;;4.13;3.15;;;;;;;15.44;61.17;93531.81;5053577;28;20047;-77
2022/09/30 02:15:21;;;;;;;4.75;3.75;;;;;;;15.75;61.58;93582.63;5051431;28;20015;-76
2022/09/30 02:17:57;;;;;;;4.90;3.25;;;;;;;15.63;61.26;93563.22;5060206;28;20486;-77
2022/09/30 02:20:30;;;;;;;3.67;3.25;;;;;;;15.54;61.37;93568.78;5054200;28;20025;-76
2022/09/30 02:23:05;;;;;;;4.50;3.00;;;;;;;15.70;61.47;93577.56;5052744;28;20044;-77
2022/09/30 02:25:44;;;;;;;4.78;3.55;;;;;;;15.67;62.28;93590.88;5051370;28;20037;-77
2022/09/30 02:28:16;;;;;;;3.88;3.47;;;;;;;15.51;62.50;93553.41;5053951;28;20112;-77
2022/09/30 02:30:46;;;;;;;4.57;3.85;;;;;;;15.62;62.06;93580.44;5050947;28;20025;-77
2022/09/30 02:33:18;;;;;;;4.00;3.17;;;;;;;15.61;62.04;93576.19;5052509;28;20128;-76
2022/09/30 02:35:56;;;;;;;5.28;3.60;;;;;;;15.26;62.13;93517.97;5052961;28;20580;-77
2022/09/30 02:38:30;;;;;;;12.43;4.63;;;;;;;15.47;61.90;93555.22;5052211;28;20056;-76
2022/09/30 02:41:01;;;;;;;5.10;3.75;;;;;;;15.65;61.86;93577.03;5052330;28;20390;-77
2022/09/30 02:43:28;;;;;;;4.85;3.65;;;;;;;15.41;61.55;93535.16;5052107;28;20039;-77
2022/09/30 02:46:06;;;;;;;7.50;4.35;;;;;;;15.62;61.35;93580.44;5050737;28;20640;-77
2022/09/30 02:48:45;;;;;;;6.88;4.22;;;;;;;15.63;61.27;93573.94;5051682;28;20017;-76
2022/09/30 02:51:16;;;;;;;5.35;4.18;;;;;;;15.55;61.40;93572.25;5054733;28;20487;-77
2022/09/30 02:53:51;;;;;;;5.93;4.25;;;;;;;15.52;60.85;93567.56;5051666;28;20112;-77
2022/09/30 02:56:22;;;;;;;;;;;;;;;15.59;61.17;93583.81;5053634;28;20048;-77
2022/09/30 02:58:50;;;;;;;5.13;3.80;;;;;;;15.57;61.48;93578.03;5054651;28;19912;-77
2022/09/30 03:01:16;;;;;;;6.25;4.03;;;;;;;15.55;61.53;93582.97;5052521;28;20024;-77
2022/09/30 03:03:41;;;;;;;3.72;3.03;;;;;;;15.54;61.43;93584.09;5053145;28;20025;-76
2022/09/30 03:06:08;;;;;;;6.93;3.58;;;;;;;15.38;61.74;93574.16;5058122;28;20395;-77
2022/09/30 03:08:33;;;;;;;6.43;3.92;;;;;;;15.51;61.51;93604.31;5050941;28;20103;-77
2022/09/30 03:10:59;;;;;;;4.93;3.25;;;;;;;15.37;61.24;93583.31;5052085;28;20661;-77
2022/09/30 03:13:58;;;;;;;5.10;3.05;;;;;;;15.50;61.36;93599.31;5052726;28;20025;-77
2022/09/30 03:16:54;;;;;;;4.55;3.15;;;;;;;15.44;61.16;93596.91;5054316;28;20108;-77
2022/09/30 03:19:38;;;;;;;7.10;4.57;;;;;;;15.32;61.82;93602.31;5048727;28;20062;-76
2022/09/30 03:22:18;;;;;;;8.68;5.32;;;;;;;15.32;62.70;93596.97;5050192;28;20144;-77
2022/09/30 03:24:58;;;;;;;9.43;4.82;;;;;;;15.34;63.22;93610.81;5050393;28;20433;-77
2022/09/30 03:27:42;;;;;;;6.78;4.00;;;;;;;15.41;63.22;93604.81;5052640;28;20550;-76
2022/09/30 03:30:27;;;;;;;10.38;4.78;;;;;;;15.36;63.25;93589.00;5051333;28;20020;-76
2022/09/30 03:32:55;;;;;;;8.77;4.78;;;;;;;15.50;63.41;93607.38;5051080;28;20024;-76
2022/09/30 03:35:42;;;;;;;8.25;4.40;;;;;;;15.48;62.70;93609.59;5051756;28;20032;-77
2022/09/30 03:38:27;;;;;;;12.45;4.75;;;;;;;15.52;62.65;93602.41;5051949;28;20603;-77
2022/09/30 03:41:07;;;;;;;10.00;5.88;;;;;;;15.46;62.75;93591.97;5052038;28;20025;-77
2022/09/30 03:43:49;;;;;;;8.90;6.10;;;;;;;15.34;62.93;93570.63;5053651;28;20041;-77
2022/09/30 03:46:24;;;;;;;9.70;5.60;;;;;;;15.51;63.08;93596.28;5057030;28;20024;-77
2022/09/30 03:48:52;;;;;;;;;;;;;;;15.56;62.80;93622.81;5052089;28;20024;-76
2022/09/30 03:51:19;;;;;;;12.77;6.65;;;;;;;15.35;64.26;93628.41;5050468;28;19920;-76
2022/09/30 03:53:47;;;;;;;11.07;6.43;;;;;;;15.29;64.54;93613.75;5049496;28;20029;-76
2022/09/30 03:56:13;;;;;;;11.43;5.75;;;;;;;15.27;64.54;93599.91;5046297;28;20028;-76
2022/09/30 03:58:43;;;;;;;10.00;5.75;;;;;;;15.25;64.58;93594.13;5052963;28;20043;-77
2022/09/30 04:01:23;;;;;;;11.45;7.20;;;;;;;15.36;64.80;93611.22;5051055;28;20082;-76
2022/09/30 04:03:52;;;;;;;12.13;5.65;;;;;;;15.37;64.48;93614.69;5050592;28;20055;-76
2022/09/30 04:06:19;;;;;;;9.75;6.45;;;;;;;15.52;64.60;93638.03;5050726;28;20763;-77
2022/09/30 04:08:45;;;;;;;21.35;7.03;;;;;;;15.50;64.48;93623.44;5052217;28;20028;-77
2022/09/30 04:11:11;;;;;;;13.93;7.05;;;;;;;15.49;65.16;93627.25;5051118;28;20029;-76
2022/09/30 04:13:37;;;;;;;15.10;8.23;;;;;;;15.43;65.15;93602.56;5052313;28;20021;-76
2022/09/30 04:16:04;;;;;;;12.45;7.72;;;;;;;15.42;65.43;93596.44;5048801;28;20028;-77
2022/09/30 04:18:30;;;;;;;14.88;7.22;;;;;;;15.55;65.31;93607.09;5051075;28;20025;-77
2022/09/30 04:20:56;;;;;;;15.38;7.68;;;;;;;15.55;65.22;93618.56;5047999;28;20023;-77
2022/09/30 04:23:22;;;;;;;14.93;7.97;;;;;;;15.51;65.08;93607.00;5049859;28;20070;-76
2022/09/30 04:25:52;;;;;;;13.65;8.20;;;;;;;15.49;64.95;93592.41;5049005;28;20804;-77
2022/09/30 04:28:17;;;;;;;16.42;8.48;;;;;;;15.60;65.34;93623.66;5048873;28;20035;-77
2022/09/30 04:30:42;;;;;;;12.10;8.15;;;;;;;15.44;65.47;93610.31;5049524;28;20574;-77
2022/09/30 04:33:08;;;;;;;17.10;8.00;;;;;;;15.42;65.74;93617.09;5051677;28;20049;-77
2022/09/30 04:35:36;;;;;;;13.55;7.82;;;;;;;15.37;65.50;93606.66;5049037;28;20048;-77
2022/09/30 04:38:05;;;;;;;14.23;8.30;;;;;;;15.57;65.60;93635.09;5051434;28;20035;-76
2022/09/30 04:40:31;;;;;;;11.50;6.78;;;;;;;15.58;65.41;93631.28;5050613;28;20792;-77
2022/09/30 04:42:57;;;;;;;12.80;6.75;;;;;;;15.49;65.04;93627.25;5052255;28;20024;-76
2022/09/30 04:45:23;;;;;;;12.52;6.75;;;;;;;15.30;65.21;93604.56;5047703;28;20025;-78
2022/09/30 04:47:48;;;;;;;12.30;7.18;;;;;;;15.37;65.43;93622.72;5053712;28;20025;-77
2022/09/30 04:50:14;;;;;;;12.98;7.32;;;;;;;15.28;65.98;93638.97;5052264;28;20033;-76
2022/09/30 04:52:43;;;;;;;13.80;7.53;;;;;;;15.38;65.99;93659.91;5049462;28;20032;-76
2022/09/30 04:55:09;;;;;;;12.07;7.43;;;;;;;15.41;65.69;93669.13;5053436;28;20586;-76
2022/09/30 04:57:35;;;;;;;12.40;7.35;;;;;;;15.20;65.67;93652.56;5047945;28;20066;-75
2022/09/30 05:00:00;;;;;;;12.18;7.65;;;;;;;15.38;65.69;93680.56;5051083;28;20131;-78
2022/09/30 05:02:26;;;;;;;10.00;7.10;;;;;;;15.19;65.60;93654.44;5052230;28;20573;-76
2022/09/30 05:04:54;;;;;;;11.63;6.38;;;;;;;15.10;65.75;93643.13;5049498;28;20389;-77
2022/09/30 05:07:19;;;;;;;9.88;6.43;;;;;;;15.33;65.83;93667.41;5052747;28;20711;-78
2022/09/30 05:09:45;;;;;;;9.57;6.13;;;;;;;15.18;66.35;93628.78;5050125;28;20040;-77
2022/09/30 05:12:11;;;;;;;8.68;6.13;;;;;;;15.00;66.47;93639.06;5049521;28;20025;-78
2022/09/30 05:14:36;;;;;;;9.77;6.75;;;;;;;14.86;67.44;93648.63;5047537;28;20479;-77
2022/09/30 05:17:03;;;;;;;10.68;6.40;;;;;;;15.06;67.37;93676.31;5049607;28;20055;-77
2022/09/30 05:19:29;;;;;;;12.38;7.32;;;;;;;14.90;67.30;93649.50;5047614;28;20483;-77
2022/09/30 05:21:54;;;;;;;12.68;7.75;;;;;;;15.05;67.40;93696.94;5048886;28;20056;-79
2022/09/30 05:24:20;;;;;;;12.30;8.18;;;;;;;14.90;67.74;93662.88;5050680;28;20036;-78
2022/09/30 05:26:46;;;;;;;13.07;8.20;;;;;;;15.19;67.65;93705.34;5049711;28;20020;-77
2022/09/30 05:29:11;;;;;;;12.82;7.72;;;;;;;15.10;68.08;93691.34;5049026;28;20039;-77
2022/09/30 05:31:37;;;;;;;13.15;7.75;;;;;;;15.27;67.81;93693.69;5046692;28;20028;-77
2022/09/30 05:34:03;;;;;;;14.10;7.90;;;;;;;15.16;67.75;93679.22;5052395;28;20033;-76
2022/09/30 05:36:28;;;;;;;14.30;7.90;;;;;;;15.36;67.99;93698.88;5050744;28;20070;-77
2022/09/30 05:38:54;;;;;;;12.77;7.22;;;;;;;15.27;67.90;93685.66;5051336;28;20108;-77
2022/09/30 05:41:20;;;;;;;13.20;8.40;;;;;;;15.35;68.00;93691.97;5049858;28;20031;-78
2022/09/30 05:43:46;;;;;;;11.60;7.40;;;;;;;15.44;67.64;93709.47;5055793;28;20031;-78
2022/09/30 05:46:13;;;;;;;12.98;8.25;;;;;;;15.39;68.11;93695.50;5049003;28;20038;-78
2022/09/30 05:48:38;;;;;;;11.52;7.53;;;;;;;15.34;67.72;93677.00;5052605;28;20383;-77
2022/09/30 05:51:04;;;;;;;11.60;7.70;;;;;;;15.51;67.58;93700.81;5052304;28;20028;-78
2022/09/30 05:53:31;;;;;;;13.18;8.02;;;;;;;15.62;67.56;93706.41;5051609;28;20023;-77
2022/09/30 05:55:57;;;;;;;16.17;9.52;;;;;;;15.54;67.96;93693.97;5047943;28;20524;-76
2022/09/30 05:58:23;;;;;;;11.02;7.50;;;;;;;15.52;68.16;93709.63;5047699;28;20386;-77
2022/09/30 06:00:49;;;;;;;14.70;9.25;;;;;;;15.52;68.31;93712.31;5056218;28;20021;-78
2022/09/30 06:03:16;;;;;;;16.83;9.50;;;;;;;15.53;67.84;93714.66;5049277;28;20052;-76
2022/09/30 06:05:41;;;;;;;14.02;8.20;;;;;;;15.66;68.06;93744.81;5049149;28;20016;-77
2022/09/30 06:08:07;;;;;;;16.88;9.93;;;;;;;15.53;68.06;93711.19;5045551;28;20028;-76
2022/09/30 06:10:33;;;;;;;15.75;9.43;;;;;;;15.40;67.93;93689.78;5056144;28;20770;-76
2022/09/30 06:13:01;;;;;;;18.73;11.18;;;;;;;15.71;68.34;93733.84;5048372;28;20029;-76
2022/09/30 06:15:26;;;;;;;18.15;9.95;;;;;;;15.40;68.33;93700.50;5047101;28;20399;-76
2022/09/30 06:17:53;;;;;;;16.75;9.77;;;;;;;15.49;68.31;93713.78;5049378;28;20035;-76
2022/09/30 06:20:19;;;;;;;15.43;9.07;;;;;;;15.62;68.60;93727.88;5049569;28;20556;-77
2022/09/30 06:22:44;;;;;;;14.88;8.48;;;;;;;15.65;69.15;93727.16;5046970;28;20048;-79
2022/09/30 06:25:10;;;;;;;15.57;8.82;;;;;;;15.64;69.30;93712.22;5048358;28;20419;-77
2022/09/30 06:27:38;;;;;;;18.17;10.13;;;;;;;15.56;69.29;93707.81;5047064;28;20116;-78
2022/09/30 06:30:07;;;;;;;16.42;9.88;;;;;;;15.78;69.38;93739.38;5046491;28;20462;-75
2022/09/30 06:32:32;;;;;;;14.88;8.48;;;;;;;15.55;70.21;93682.91;5046720;28;20029;-76
2022/09/30 06:34:58;;;;;;;12.32;7.50;;;;;;;15.93;69.88;93727.84;5049925;28;20024;-77
2022/09/30 06:37:24;;;;;;;19.92;8.60;;;;;;;15.97;70.33;93706.47;5047624;28;20587;-78
2022/09/30 06:39:50;;;;;;;22.35;12.18;;;;;;;16.07;70.77;93709.41;5048294;28;20661;-79
2022/09/30 06:42:17;;;;;;;21.63;11.52;;;;;;;16.42;70.60;93762.31;5049928;28;20502;-79
2022/09/30 06:44:44;;;;;;;21.52;12.13;;;;;;;16.41;69.66;93748.13;5051387;28;20028;-77
2022/09/30 06:47:09;;;;;;;26.83;12.82;;;;;;;16.43;69.22;93750.47;5049230;28;20032;-78
2022/09/30 06:49:35;;;;;;;23.38;13.55;;;;;;;16.45;69.20;93753.56;5047873;28;20024;-78
2022/09/30 06:52:00;;;;;;;21.90;13.40;;;;;;;16.67;69.57;93777.81;5050193;28;20519;-77
2022/09/30 06:54:29;;;;;;;23.33;13.63;;;;;;;16.73;68.85;93803.28;5049977;28;20028;-77
2022/09/30 06:56:56;;;;;;;25.30;14.90;;;;;;;16.75;67.67;93800.25;5054610;28;20525;-77
2022/09/30 06:59:25;;;;;;;22.00;13.43;;;;;;;16.65;67.39;93773.94;5050895;28;20028;-78
2022/09/30 07:01:51;;;;;;;25.42;14.00;;;;;;;16.66;67.14;93770.13;5054528;28;20031;-78
2022/09/30 07:04:16;;;;;;;28.98;13.18;;;;;;;16.82;67.07;93803.06;5051318;28;20254;-77
2022/09/30 07:06:42;;;;;;;24.13;13.68;;;;;;;16.80;67.00;93791.13;5055062;28;20147;-77
2022/09/30 07:09:09;;;;;;;24.25;12.55;;;;;;;16.74;66.25;93779.88;5052283;28;20024;-77
2022/09/30 07:11:37;;;;;;;27.05;15.25;;;;;;;16.76;66.98;93785.69;5054757;28;20112;-77
2022/09/30 07:14:06;;;;;;;23.00;13.95;;;;;;;16.89;67.53;93816.66;5053082;28;20025;-76
2022/09/30 07:16:33;;;;;;;26.10;13.73;;;;;;;16.86;67.74;93779.75;5055049;28;20048;-77
2022/09/30 07:19:00;;;;;;;25.80;14.73;;;;;;;17.00;67.30;93800.75;5053978;28;20483;-78
2022/09/30 07:21:26;;;;;;;25.85;12.93;;;;;;;17.04;67.55;93818.50;5048113;28;20044;-79
2022/09/30 07:23:52;;;;;;;26.08;14.40;;;;;;;17.10;67.07;93819.78;5050583;28;20668;-76
2022/09/30 07:26:22;;;;;;;22.38;12.23;;;;;;;17.09;66.08;93815.53;5055858;28;20029;-78
2022/09/30 07:28:48;;;;;;;26.98;12.55;;;;;;;17.17;66.51;93811.88;5050433;28;20052;-78
2022/09/30 07:31:23;;;;;;;23.20;12.93;;;;;;;17.16;66.47;93829.13;5052863;28;20028;-79
2022/09/30 07:33:55;;;;;;;32.22;14.38;;;;;;;17.21;66.87;93835.38;5048972;28;20561;-80
2022/09/30 07:36:28;;;;;;;28.08;13.15;;;;;;;17.21;66.64;93828.06;5054133;28;20024;-77
2022/09/30 07:38:54;;;;;;;25.30;13.98;;;;;;;17.23;66.62;93825.81;5051981;28;20111;-77
2022/09/30 07:41:26;;;;;;;25.17;13.85;;;;;;;17.16;66.94;93804.16;5048499;28;20038;-77
2022/09/30 07:43:52;;;;;;;25.90;14.43;;;;;;;17.30;67.61;93819.81;5051784;28;20714;-77
2022/09/30 07:46:25;;;;;;;25.00;12.75;;;;;;;17.33;67.37;93821.78;5050686;28;20021;-78
2022/09/30 07:48:55;;;;;;;29.00;14.73;;;;;;;17.21;67.83;93800.44;5067925;28;20025;-78
2022/09/30 07:51:24;;;;;;;21.42;13.00;;;;;;;17.39;67.49;93817.69;5046618;28;20828;-76
2022/09/30 07:53:56;;;;;;;22.65;12.00;;;;;;;17.29;65.51;93807.50;5051832;28;20024;-77
2022/09/30 07:56:22;;;;;;;20.13;11.57;;;;;;;17.40;65.08;93828.09;5054805;28;20021;-76
2022/09/30 07:58:51;;;;;;;23.13;11.88;;;;;;;17.36;64.33;93824.53;5052599;28;20108;-77
2022/09/30 08:01:17;;;;;;;16.52;10.18;;;;;;;17.26;64.50;93808.97;5050824;28;20062;-77
2022/09/30 08:03:45;;;;;;;14.32;8.90;;;;;;;17.43;65.04;93840.81;5051073;28;20502;-77
2022/09/30 08:06:14;;;;;;;17.42;10.70;;;;;;;17.15;64.97;93799.94;5047014;28;20021;-77
2022/09/30 08:08:41;;;;;;;18.20;10.35;;;;;;;17.44;65.46;93845.06;5053418;28;20033;-78
2022/09/30 08:11:06;;;;;;;28.13;12.73;;;;;;;17.57;65.71;93856.41;5052384;28;20029;-76
2022/09/30 08:13:32;;;;;;;23.08;12.05;;;;;;;17.39;65.40;93829.22;5051366;28;20044;-77
2022/09/30 08:15:58;;;;;;;20.23;11.73;;;;;;;17.53;65.80;93839.44;5048584;28;20490;-78
2022/09/30 08:18:26;;;;;;;22.50;11.27;;;;;;;17.52;66.29;93843.25;5048554;28;20021;-79
2022/09/30 08:20:52;;;;;;;16.13;10.15;;;;;;;17.51;66.13;93839.00;5044776;28;20028;-78
2022/09/30 08:23:17;;;;;;;16.38;9.32;;;;;;;17.58;65.33;93844.53;5047456;28;20102;-78
2022/09/30 08:25:42;;;;;;;20.23;10.82;;;;;;;17.69;66.15;93868.94;5047570;28;20029;-78
2022/09/30 08:28:08;;;;;;;18.90;10.73;;;;;;;17.59;65.95;93827.28;5045351;28;20037;-78
2022/09/30 08:30:35;;;;;;;18.92;10.18;;;;;;;17.49;66.01;93814.41;5046515;28;20748;-77
2022/09/30 08:33:00;;;;;;;15.35;9.18;;;;;;;17.87;65.85;93853.91;5046604;28;20544;-79
2022/09/30 08:35:26;;;;;;;15.63;9.70;;;;;;;17.70;64.89;93838.97;5045545;28;20028;-78
2022/09/30 08:37:51;;;;;;;18.40;9.38;;;;;;;17.91;65.74;93874.34;5045448;28;20031;-76
2022/09/30 08:40:23;;;;;;;16.00;10.07;;;;;;;17.84;65.79;93844.66;5045866;28;20037;-77
2022/09/30 08:43:11;;;;;;;20.73;10.80;;;;;;;17.99;66.14;93861.84;5029934;28;20036;-76
2022/09/30 08:45:40;;;;;;;15.02;9.48;;;;;;;17.99;66.00;93861.84;5044825;28;20031;-76
2022/09/30 08:48:36;;;;;;;16.00;10.15;;;;;;;18.03;65.84;93863.47;5043488;28;20075;-77
2022/09/30 08:51:29;;;;;;;17.52;8.98;;;;;;;17.89;65.77;93847.00;5045294;28;20048;-77
2022/09/30 08:53:58;;;;;;;14.95;9.27;;;;;;;18.17;65.53;93867.50;5046959;28;20122;-78
2022/09/30 08:56:30;;;;;;;14.40;8.80;;;;;;;18.04;64.08;93834.59;5045570;28;20025;-76
2022/09/30 08:59:17;;;;;;;14.70;9.82;;;;;;;18.29;63.85;93862.72;5042393;28;20740;-77
2022/09/30 09:01:47;;;;;;;13.93;8.20;;;;;;;18.39;64.32;93870.19;5045821;28;20082;-77
2022/09/30 09:04:13;;;;;;;13.27;8.60;;;;;;;18.40;64.84;93874.44;5045668;28;20029;-78
2022/09/30 09:07:08;;;;;;;14.80;9.88;;;;;;;18.35;63.50;93863.19;5043365;28;20039;-76
2022/09/30 09:09:58;;;;;;;16.85;10.75;;;;;;;18.52;63.07;93873.47;5053839;28;20034;-76
2022/09/30 09:12:34;;;;;;;14.38;8.52;;;;;;;18.61;63.77;93886.69;5045953;28;20025;-76
2022/09/30 09:15:02;;;;;;;13.43;8.43;;;;;;;18.53;63.89;93880.41;5045922;28;20371;-76
2022/09/30 09:17:38;;;;;;;14.10;8.05;;;;;;;18.60;63.04;93882.44;5045769;28;20021;-76
2022/09/30 09:20:14;;;;;;;13.18;7.32;;;;;;;18.67;61.62;93888.72;5043658;28;20093;-77
2022/09/30 09:22:40;;;;;;;12.68;7.60;;;;;;;18.66;61.58;93873.69;5061274;28;20048;-76
2022/09/30 09:25:12;;;;;;;14.85;8.50;;;;;;;18.74;62.40;93890.75;5051822;28;20372;-76
2022/09/30 09:27:56;;;;;;;17.63;9.07;;;;;;;18.75;63.56;93900.41;5042652;28;20042;-77
2022/09/30 09:30:24;;;;;;;16.25;9.38;;;;;;;18.86;62.42;93896.75;5046621;28;20525;-78
2022/09/30 09:32:59;;;;;;;12.18;7.57;;;;;;;18.92;62.00;93899.13;5044587;28;20036;-76
2022/09/30 09:35:42;;;;;;;12.52;8.73;;;;;;;18.93;62.45;93896.03;5044995;28;20056;-76
2022/09/30 09:38:34;;;;;;;11.43;7.25;;;;;;;19.00;62.62;93890.78;5051639;28;20021;-78
2022/09/30 09:41:35;;;;;;;11.43;7.57;;;;;;;19.12;61.03;93889.75;5045574;28;20044;-76
2022/09/30 09:44:04;;;;;;;13.25;7.03;;;;;;;19.20;60.71;93886.03;5059320;28;20036;-78
2022/09/30 09:46:48;;;;;;;10.82;7.35;;;;;;;19.25;62.20;93883.00;5044395;28;20024;-78
2022/09/30 09:49:19;;;;;;;12.52;6.63;;;;;;;19.28;62.17;93887.66;5046180;28;20117;-76
2022/09/30 09:52:04;;;;;;;12.07;5.75;;;;;;;19.32;59.38;93877.69;5044370;28;20069;-77
2022/09/30 09:54:31;;;;;;;8.02;5.47;;;;;;;19.43;58.46;93886.69;5043443;28;20356;-78
2022/09/30 09:57:10;;;;;;;8.75;5.35;;;;;;;19.49;58.67;93869.09;5040583;28;20021;-77
2022/09/30 09:59:38;;;;;;;13.60;5.65;;;;;;;19.43;59.00;93875.13;5046577;28;20024;-77
2022/09/30 10:02:21;;;;;;;9.20;5.28;;;;;;;19.53;57.83;93888.00;5046812;28;20111;-77
2022/09/30 10:04:49;;;;;;;10.18;4.95;;;;;;;19.60;56.32;93888.09;5045020;28;20490;-78
2022/09/30 10:07:19;;;;;;;7.22;4.75;;;;;;;19.57;55.64;93886.13;5047836;28;20063;-77
2022/09/30 10:09:44;;;;;;;10.98;5.07;;;;;;;19.62;55.12;93875.78;5045850;28;20153;-78
2022/09/30 10:12:09;;;;;;;9.00;5.03;;;;;;;19.80;54.53;93894.09;5046027;28;20036;-79
2022/09/30 10:14:51;;;;;;;6.45;3.65;;;;;;;19.91;54.30;93892.28;5045259;28;20029;-77
2022/09/30 10:17:25;;;;;;;9.38;3.85;;;;;;;19.99;53.50;93888.53;5044987;28;20031;-77
2022/09/30 10:20:15;;;;;;;7.57;4.35;;;;;;;19.95;50.63;93866.09;5044624;28;20144;-77
2022/09/30 10:22:41;;;;;;;6.00;4.35;;;;;;;19.99;51.19;93869.63;5045215;28;20114;-79
2022/09/30 10:25:13;;;;;;;7.20;3.78;;;;;;;20.12;51.92;93881.72;5046466;28;20032;-77
2022/09/30 10:27:49;;;;;;;6.93;4.03;;;;;;;19.93;50.56;93831.41;5045616;28;20032;-77
2022/09/30 10:30:29;;;;;;;6.95;3.88;;;;;;;20.20;50.09;93856.34;5033064;28;20624;-77
2022/09/30 10:32:55;;;;;;;7.32;3.28;;;;;;;20.12;49.06;93838.50;5050233;28;20373;-78
2022/09/30 10:35:22;;;;;;;4.20;3.30;;;;;;;19.96;49.14;93805.56;5050324;28;20028;-78
2022/09/30 10:37:53;;;;;;;5.10;3.00;;;;;;;20.21;45.59;93849.81;5050528;28;20048;-77
2022/09/30 10:40:26;;;;;;;3.10;2.20;;;;;;;20.33;45.66;93865.72;5047087;28;20132;-77
2022/09/30 10:42:52;;;;;;;3.80;2.63;;;;;;;20.35;46.12;93859.94;5047970;28;20029;-76
2022/09/30 10:45:25;;;;;;;3.75;2.22;;;;;;;20.27;46.55;93853.72;5050217;28;20502;-79
2022/09/30 10:47:54;;;;;;;3.80;2.53;;;;;;;20.41;46.03;93867.34;5048669;28;20476;-77
2022/09/30 10:50:23;;;;;;;3.90;1.98;;;;;;;20.39;46.07;93848.00;5047230;28;20039;-77
2022/09/30 10:52:59;;;;;;;7.32;2.63;;;;;;;20.50;44.79;93857.00;5050401;28;20208;-76
2022/09/30 10:55:30;;;;;;;3.22;2.00;;;;;;;20.69;44.97;93872.19;5047076;28;20021;-76
2022/09/30 10:58:18;;;;;;;2.30;2.08;;;;;;;20.57;44.78;93845.47;5050095;28;20027;-78
2022/09/30 11:00:47;;;;;;;3.00;1.90;;;;;;;20.76;45.27;93860.66;5031656;28;20024;-77
2022/09/30 11:03:18;;;;;;;4.18;2.15;;;;;;;20.83;45.79;93857.97;5046532;28;20044;-76
2022/09/30 11:05:46;;;;;;;5.90;2.35;;;;;;;20.79;45.45;93836.34;5043406;28;20067;-77
2022/09/30 11:08:38;;;;;;;2.55;1.92;;;;;;;21.15;43.01;93877.13;5043406;28;20028;-76
2022/09/30 11:11:13;;;;;;;4.35;2.25;;;;;;;21.16;43.15;93873.28;5050647;28;20021;-76
2022/09/30 11:14:12;;;;;;;2.72;1.75;;;;;;;21.20;42.81;93874.84;5042364;28;20115;-78
2022/09/30 11:16:54;;;;;;;4.00;2.42;;;;;;;21.24;43.25;93862.13;5037548;28;20025;-77
2022/09/30 11:19:29;;;;;;;7.18;2.65;;;;;;;21.12;42.86;93843.50;5043936;28;20033;-79
2022/09/30 11:22:09;;;;;;;2.70;2.10;;;;;;;21.14;43.79;93845.84;5044755;28;20041;-77
2022/09/30 11:24:40;;;;;;;1.95;1.67;;;;;;;21.27;41.65;93858.66;5041520;28;20033;-77
2022/09/30 11:27:23;;;;;;;4.60;2.65;;;;;;;21.40;42.00;93867.22;5046263;28;20027;-78
2022/09/30 11:30:09;;;;;;;3.97;1.92;;;;;;;21.44;40.79;93879.59;5042801;28;20565;-77
2022/09/30 11:32:50;;;;;;;1.95;1.75;;;;;;;21.53;40.72;93881.97;5041492;28;20565;-78
2022/09/30 11:35:24;;;;;;;2.63;1.35;;;;;;;21.51;41.55;93867.28;5044138;28;20029;-77
2022/09/30 11:38:11;;;;;;;3.42;1.95;;;;;;;21.55;43.29;93874.28;5047846;28;20024;-77
2022/09/30 11:40:55;;;;;;;1.73;1.10;;;;;;;21.51;39.11;93873.44;5055519;28;20028;-78
2022/09/30 11:43:30;;;;;;;3.30;1.55;;;;;;;21.56;42.00;93885.88;5048271;28;20020;-77
2022/09/30 11:45:56;;;;;;;1.42;1.33;;;;;;;21.47;39.08;93878.06;5048218;28;20532;-77
2022/09/30 11:48:51;;;;;;;2.22;1.58;;;;;;;21.50;40.25;93873.84;5042684;28;20032;-78